Terminal Aerodrome Forecast
Issued by NWS Sioux Falls, SD

Home | Current Version | Previous Version | Text Only | Print | Product List | Glossary Off
Versions: 1 2 3 4 5 6 7 8 9 10 11 12 13 14 15 16 17 18 19 20 21 22 23 24 25 26 27

000
FTUS43 KFSD 050524
TAFSUX
TAF
KSUX 050524Z 0506/0606 15009KT P6SM SCT070 SCT250 WS018/24040KT
     FM051400 17012KT P6SM FEW120 BKN250
     FM051800 18014G24KT P6SM VCSH BKN100
     FM052100 19008KT P6SM SCT060 BKN120=

USA.gov is the U.S. government's official web portal to all federal, state and local government web resources and services.